McClelland, Iowa
Current Conditions -  °F | °C
As of 5:55 AM on Thursday 27 Nov 2014 (Local Time) from KCBF Reporting Station
Overcast Overcast  
Wind Chill:   Ceiling: 4600
Heat Index: 16°   Visibility: 10mi
Dew Point: 12°   Wind: 9mph
Humidity: 86%   Direction: 10°N
Pressure: 30.48"   Gusts: NA
Location:  41.33°N, 95.68°W
Report Text: KCBF 271155Z AUTO 01008KT 10SM OVC046 M09/M11 A3048 RMK AO2
Loading
Personal Weather Stations






























Interactive Weather Map New forecast layout! Learn more

10-Day Weather Forecast

Advertisements
Track Severe Weather on mobile